createdAt,value
2023-02-27T00:01:17.920Z,3.7
2023-02-27T00:06:18.030Z,4.1
2023-02-27T00:11:17.882Z,4.1
2023-02-27T00:16:17.951Z,3.5
2023-02-27T00:21:17.988Z,3.5
2023-02-27T00:26:17.911Z,3.0
2023-02-27T00:31:17.892Z,3.6
2023-02-27T00:36:18.130Z,4.0
2023-02-27T00:41:18.133Z,3.0
2023-02-27T00:46:18.035Z,3.2
2023-02-27T00:51:18.077Z,2.3
2023-02-27T00:56:17.831Z,1.9
2023-02-27T01:01:17.883Z,2.0
2023-02-27T01:06:17.939Z,2.1
2023-02-27T01:11:17.796Z,2.0
2023-02-27T01:16:17.853Z,2.6
2023-02-27T01:21:17.878Z,2.7
2023-02-27T01:26:17.733Z,2.9
2023-02-27T01:31:17.769Z,3.5
2023-02-27T01:36:17.967Z,2.9
2023-02-27T01:41:17.673Z,2.8
2023-02-27T01:46:17.819Z,2.9
2023-02-27T01:51:17.871Z,3.6
2023-02-27T01:56:17.834Z,4.1
2023-02-27T02:01:17.727Z,3.6
2023-02-27T02:06:17.958Z,3.8
2023-02-27T02:11:17.739Z,4.2
2023-02-27T02:16:17.749Z,4.1
2023-02-27T02:21:17.789Z,3.9
2023-02-27T02:26:17.717Z,4.3
2023-02-27T02:31:17.810Z,5.2
2023-02-27T02:36:17.839Z,4.3
2023-02-27T02:41:17.699Z,4.3
2023-02-27T02:46:17.785Z,4.6
2023-02-27T02:51:17.873Z,4.5
2023-02-27T02:56:17.661Z,4.7
2023-02-27T03:01:17.718Z,3.9
2023-02-27T03:06:17.817Z,4.2
2023-02-27T03:11:17.673Z,3.9
2023-02-27T03:16:17.607Z,4.3
2023-02-27T03:21:17.755Z,4.1
2023-02-27T03:26:17.610Z,4.8
2023-02-27T03:31:17.683Z,4.5
2023-02-27T03:36:17.684Z,4.3
2023-02-27T03:41:17.509Z,4.5
2023-02-27T03:46:17.624Z,4.8
2023-02-27T03:51:17.598Z,4.2
2023-02-27T03:56:17.463Z,4.3
2023-02-27T04:01:17.535Z,4.3
2023-02-27T04:06:17.645Z,5.1
2023-02-27T04:11:17.517Z,4.7
2023-02-27T04:16:17.434Z,4.0
2023-02-27T04:21:17.719Z,5.1
2023-02-27T04:26:17.545Z,4.3
2023-02-27T04:31:17.686Z,5.2
2023-02-27T04:36:17.395Z,5.3
2023-02-27T04:41:17.437Z,4.9
2023-02-27T04:46:17.637Z,5.3
2023-02-27T04:51:17.466Z,4.9
2023-02-27T04:56:17.472Z,5.2
2023-02-27T05:01:17.380Z,4.9
2023-02-27T05:06:17.349Z,5.3
2023-02-27T05:11:17.361Z,5.0
2023-02-27T05:16:17.362Z,5.5
2023-02-27T05:21:17.434Z,5.1
2023-02-27T05:26:17.356Z,5.5
2023-02-27T05:31:17.397Z,4.9
2023-02-27T05:36:17.489Z,4.9
2023-02-27T05:41:17.355Z,4.9
2023-02-27T05:46:19.254Z,4.6
2023-02-27T05:51:17.231Z,5.1
2023-02-27T05:56:17.300Z,5.4
2023-02-27T06:01:17.258Z,4.9
2023-02-27T06:06:17.384Z,6.0
2023-02-27T06:11:17.232Z,5.6
2023-02-27T06:16:17.332Z,5.0
2023-02-27T06:21:17.580Z,6.2
2023-02-27T06:26:17.253Z,5.3
2023-02-27T06:31:17.320Z,5.5
2023-02-27T06:36:17.839Z,5.0
2023-02-27T06:41:17.389Z,5.4
2023-02-27T06:46:17.284Z,5.6
2023-02-27T06:51:17.161Z,5.3
2023-02-27T06:56:17.160Z,5.7
2023-02-27T07:01:17.165Z,7.2
2023-02-27T07:06:17.246Z,7.8
2023-02-27T07:11:17.116Z,9.8
2023-02-27T07:16:17.165Z,9.3
2023-02-27T07:21:17.234Z,7.8
2023-02-27T07:26:17.110Z,8.9
2023-02-27T07:31:17.101Z,7.2
2023-02-27T07:36:17.180Z,7.2
2023-02-27T07:41:29.572Z,6.9
2023-02-27T07:46:17.051Z,7.2
2023-02-27T07:51:17.200Z,6.3
2023-02-27T08:01:17.244Z,7.2
2023-02-27T08:06:17.007Z,7.3
2023-02-27T08:11:17.018Z,7.5
2023-02-27T08:16:17.008Z,7.7
2023-02-27T08:21:16.994Z,7.4
2023-02-27T08:26:17.085Z,7.7
2023-02-27T08:31:17.040Z,8.3
2023-02-27T08:36:16.971Z,7.8
2023-02-27T08:41:17.084Z,6.9
2023-02-27T08:46:17.124Z,8.1
2023-02-27T08:51:16.994Z,6.7
2023-02-27T08:56:16.952Z,7.7
2023-02-27T09:01:17.131Z,6.6
2023-02-27T09:06:17.009Z,6.5
2023-02-27T09:11:16.977Z,5.3
2023-02-27T09:16:17.196Z,5.1
2023-02-27T09:21:17.017Z,5.4
2023-02-27T09:31:17.099Z,5.0
2023-02-27T09:36:16.970Z,3.7
2023-02-27T09:41:17.123Z,4.2
2023-02-27T09:46:16.932Z,3.6
2023-02-27T09:51:16.910Z,3.8
2023-02-27T09:56:16.895Z,3.5
2023-02-27T10:01:17.095Z,4.0
2023-02-27T10:06:16.833Z,3.4
2023-02-27T10:11:16.809Z,3.5
2023-02-27T10:16:17.058Z,3.3
2023-02-27T10:21:16.870Z,3.3
2023-02-27T10:26:16.790Z,3.6
2023-02-27T10:31:16.886Z,3.8
2023-02-27T10:36:31.010Z,4.1
2023-02-27T10:46:16.755Z,3.7
2023-02-27T10:51:16.763Z,3.8
2023-02-27T10:56:16.867Z,3.6
2023-02-27T11:01:16.743Z,3.0
2023-02-27T11:06:16.682Z,3.2
2023-02-27T11:11:17.006Z,3.3
2023-02-27T11:16:16.839Z,3.0
2023-02-27T11:21:16.717Z,2.7
2023-02-27T11:26:16.739Z,3.2
2023-02-27T11:31:16.767Z,2.6
2023-02-27T11:36:17.898Z,3.0
2023-02-27T11:41:16.759Z,3.3
2023-02-27T11:46:46.572Z,4.9
2023-02-27T11:51:16.647Z,2.7
2023-02-27T11:56:16.749Z,2.1
2023-02-27T12:01:16.636Z,3.2
2023-02-27T12:06:16.624Z,3.7
2023-02-27T12:11:16.690Z,3.8
2023-02-27T12:16:16.649Z,3.4
2023-02-27T12:21:16.509Z,5.0
2023-02-27T12:26:16.672Z,2.9
2023-02-27T12:31:16.587Z,2.6
2023-02-27T12:36:16.637Z,2.8
2023-02-27T12:41:16.597Z,2.7
2023-02-27T12:46:16.617Z,2.5
2023-02-27T12:51:16.602Z,3.0
2023-02-27T12:56:16.680Z,2.4
2023-02-27T13:01:16.748Z,2.7
2023-02-27T13:06:16.638Z,2.8
2023-02-27T13:11:16.423Z,2.6
2023-02-27T13:16:16.514Z,2.6
2023-02-27T13:21:16.425Z,3.3
2023-02-27T13:26:16.588Z,2.8
2023-02-27T13:31:16.423Z,2.8
2023-02-27T13:36:16.466Z,4.3
2023-02-27T13:41:16.567Z,3.0
2023-02-27T13:46:16.426Z,3.3
2023-02-27T13:51:16.368Z,2.7
2023-02-27T13:56:16.557Z,2.5
2023-02-27T14:01:16.555Z,3.0
2023-02-27T14:06:17.549Z,3.2
2023-02-27T16:31:16.229Z,2.9
2023-02-27T16:36:16.268Z,4.1
2023-02-27T16:41:16.567Z,3.4
2023-02-27T16:46:16.539Z,3.5
2023-02-27T16:51:16.199Z,2.8
2023-02-27T16:56:18.187Z,3.6
2023-02-27T17:01:16.318Z,4.2
2023-02-27T17:06:16.243Z,4.4
2023-02-27T17:11:16.179Z,7.3
2023-02-27T17:16:16.137Z,6.2
2023-02-27T17:21:16.248Z,6.1
2023-02-27T17:26:16.232Z,11.6
2023-02-27T17:31:16.022Z,27.7
2023-02-27T17:36:16.111Z,24.0
2023-02-27T17:41:16.062Z,11.3
2023-02-27T17:46:15.972Z,7.2
2023-02-27T17:51:15.942Z,5.5
2023-02-27T17:56:16.021Z,6.8
2023-02-27T18:01:16.055Z,8.5
2023-02-27T18:06:16.112Z,6.8
2023-02-27T18:11:15.997Z,7.3
2023-02-27T18:16:15.987Z,7.3
2023-02-27T18:21:16.258Z,5.1
2023-02-27T18:26:32.797Z,5.7
2023-02-27T18:31:16.042Z,5.2
2023-02-27T18:36:16.025Z,4.8
2023-02-27T18:41:15.854Z,5.2
2023-02-27T18:46:16.475Z,5.6
2023-02-27T18:51:16.304Z,5.3
2023-02-27T18:56:15.902Z,6.2
2023-02-27T19:01:16.047Z,6.4
2023-02-27T19:06:16.150Z,6.2
2023-02-27T19:11:16.120Z,5.8
2023-02-27T19:16:15.831Z,5.9
2023-02-27T19:21:15.750Z,6.1
2023-02-27T19:26:15.770Z,6.5
2023-02-27T19:31:15.940Z,6.3
2023-02-27T19:36:16.892Z,5.9
2023-02-27T19:41:15.737Z,5.9
2023-02-27T19:46:15.836Z,6.4
2023-02-27T19:51:15.821Z,5.3
2023-02-27T19:56:15.759Z,5.7
2023-02-27T20:01:15.744Z,7.1
2023-02-27T20:06:15.660Z,7.1
2023-02-27T20:11:15.666Z,6.0
2023-02-27T20:16:15.678Z,7.1
2023-02-27T20:21:15.853Z,7.3
2023-02-27T20:26:15.636Z,8.4
2023-02-27T20:31:15.694Z,7.1
2023-02-27T20:36:15.811Z,5.8
2023-02-27T20:41:15.691Z,6.7
2023-02-27T20:46:15.619Z,8.3
2023-02-27T20:51:15.785Z,8.0
2023-02-27T20:56:15.589Z,7.7
2023-02-27T21:01:15.690Z,4.3
2023-02-27T21:06:15.675Z,4.5
2023-02-27T21:11:15.594Z,3.4
2023-02-27T21:16:15.672Z,3.8
2023-02-27T21:21:15.793Z,5.0
2023-02-27T21:26:15.834Z,6.0
2023-02-27T21:31:15.674Z,5.5
2023-02-27T21:36:15.908Z,6.1
2023-02-27T21:41:15.495Z,7.4
2023-02-27T21:46:15.642Z,7.5
2023-02-27T21:51:17.181Z,8.5
2023-02-27T21:56:15.482Z,9.0
2023-02-27T22:01:15.590Z,9.7
2023-02-27T22:06:15.629Z,9.0
2023-02-27T22:11:16.540Z,9.3
2023-02-27T22:16:16.260Z,10.1
2023-02-27T22:21:15.578Z,10.2
2023-02-27T22:26:15.543Z,8.9
2023-02-27T22:31:15.651Z,9.0
2023-02-27T22:36:15.714Z,8.9
2023-02-27T22:41:15.582Z,8.4
2023-02-27T22:46:15.524Z,9.6
2023-02-27T22:51:15.430Z,10.1
2023-02-27T22:56:15.383Z,9.7
2023-02-27T23:01:15.864Z,10.4
2023-02-27T23:06:15.899Z,10.3
2023-02-27T23:11:15.383Z,9.7
2023-02-27T23:16:15.325Z,10.5
2023-02-27T23:21:15.506Z,9.8
2023-02-27T23:26:15.370Z,10.1
2023-02-27T23:31:15.519Z,9.7
2023-02-27T23:36:15.895Z,11.4
2023-02-27T23:41:15.274Z,11.0
2023-02-27T23:46:15.270Z,10.8
2023-02-27T23:51:20.121Z,11.7
2023-02-27T23:56:15.228Z,9.8
